sensor_id;sensor_type;location;lat;lon;timestamp;P1;durP1;ratioP1;P2;durP2;ratioP2
68214;SDS011;55036;52.138;5.236;2022-07-09T00:01:02;14.50;;;7.30;;
68214;SDS011;55036;52.138;5.236;2022-07-09T00:03:29;12.30;;;8.23;;
68214;SDS011;55036;52.138;5.236;2022-07-09T00:05:56;9.90;;;8.05;;
68214;SDS011;55036;52.138;5.236;2022-07-09T00:08:23;9.63;;;6.93;;
68214;SDS011;55036;52.138;5.236;2022-07-09T00:10:50;12.32;;;7.20;;
68214;SDS011;55036;52.138;5.236;2022-07-09T00:13:17;10.20;;;7.40;;
68214;SDS011;55036;52.138;5.236;2022-07-09T00:15:43;12.70;;;6.90;;
68214;SDS011;55036;52.138;5.236;2022-07-09T00:18:10;10.02;;;7.43;;
68214;SDS011;55036;52.138;5.236;2022-07-09T00:20:37;12.25;;;8.23;;
68214;SDS011;55036;52.138;5.236;2022-07-09T00:23:04;13.95;;;7.70;;
68214;SDS011;55036;52.138;5.236;2022-07-09T00:25:31;18.20;;;8.35;;
68214;SDS011;55036;52.138;5.236;2022-07-09T00:27:57;18.27;;;7.60;;
68214;SDS011;55036;52.138;5.236;2022-07-09T00:30:24;12.88;;;8.30;;
68214;SDS011;55036;52.138;5.236;2022-07-09T00:32:51;8.27;;;7.40;;
68214;SDS011;55036;52.138;5.236;2022-07-09T00:35:18;10.70;;;7.93;;
68214;SDS011;55036;52.138;5.236;2022-07-09T00:37:45;12.30;;;8.40;;
68214;SDS011;55036;52.138;5.236;2022-07-09T00:40:11;10.65;;;8.13;;
68214;SDS011;55036;52.138;5.236;2022-07-09T00:42:38;9.05;;;7.93;;
68214;SDS011;55036;52.138;5.236;2022-07-09T00:45:05;11.00;;;8.50;;
68214;SDS011;55036;52.138;5.236;2022-07-09T00:47:32;9.73;;;8.48;;
68214;SDS011;55036;52.138;5.236;2022-07-09T00:49:59;12.18;;;8.48;;
68214;SDS011;55036;52.138;5.236;2022-07-09T00:52:27;9.85;;;8.38;;
68214;SDS011;55036;52.138;5.236;2022-07-09T00:54:55;10.02;;;8.98;;
68214;SDS011;55036;52.138;5.236;2022-07-09T00:57:25;12.45;;;9.75;;
68214;SDS011;55036;52.138;5.236;2022-07-09T00:59:52;12.60;;;10.10;;
68214;SDS011;55036;52.138;5.236;2022-07-09T01:02:20;12.02;;;8.98;;
68214;SDS011;55036;52.138;5.236;2022-07-09T01:04:48;12.02;;;8.70;;
68214;SDS011;55036;52.138;5.236;2022-07-09T01:07:15;13.60;;;9.00;;
68214;SDS011;55036;52.138;5.236;2022-07-09T01:09:42;14.55;;;9.77;;
68214;SDS011;55036;52.138;5.236;2022-07-09T01:12:09;12.60;;;9.30;;
68214;SDS011;55036;52.138;5.236;2022-07-09T01:14:36;15.10;;;10.05;;
68214;SDS011;55036;52.138;5.236;2022-07-09T01:17:04;16.17;;;10.48;;
68214;SDS011;55036;52.138;5.236;2022-07-09T01:19:32;15.82;;;10.15;;
68214;SDS011;55036;52.138;5.236;2022-07-09T01:22:00;13.43;;;10.85;;
68214;SDS011;55036;52.138;5.236;2022-07-09T01:24:32;12.32;;;10.35;;
68214;SDS011;55036;52.138;5.236;2022-07-09T01:26:59;13.38;;;9.65;;
68214;SDS011;55036;52.138;5.236;2022-07-09T01:29:26;13.60;;;9.90;;
68214;SDS011;55036;52.138;5.236;2022-07-09T01:31:53;16.90;;;11.43;;
68214;SDS011;55036;52.138;5.236;2022-07-09T01:34:20;12.27;;;10.30;;
68214;SDS011;55036;52.138;5.236;2022-07-09T01:36:47;13.52;;;9.93;;
68214;SDS011;55036;52.138;5.236;2022-07-09T01:39:14;14.73;;;9.75;;
68214;SDS011;55036;52.138;5.236;2022-07-09T01:41:40;11.98;;;9.90;;
68214;SDS011;55036;52.138;5.236;2022-07-09T01:44:07;12.35;;;9.25;;
68214;SDS011;55036;52.138;5.236;2022-07-09T01:46:34;10.82;;;9.65;;
68214;SDS011;55036;52.138;5.236;2022-07-09T01:49:02;13.93;;;8.75;;
68214;SDS011;55036;52.138;5.236;2022-07-09T01:51:29;12.95;;;9.93;;
68214;SDS011;55036;52.138;5.236;2022-07-09T01:53:56;9.43;;;8.38;;
68214;SDS011;55036;52.138;5.236;2022-07-09T01:56:23;11.02;;;8.88;;
68214;SDS011;55036;52.138;5.236;2022-07-09T01:58:50;10.70;;;8.52;;
68214;SDS011;55036;52.138;5.236;2022-07-09T02:01:16;12.40;;;9.40;;
68214;SDS011;55036;52.138;5.236;2022-07-09T02:03:44;13.65;;;10.32;;
68214;SDS011;55036;52.138;5.236;2022-07-09T02:06:10;13.38;;;10.73;;
68214;SDS011;55036;52.138;5.236;2022-07-09T02:08:37;13.73;;;9.70;;
68214;SDS011;55036;52.138;5.236;2022-07-09T02:11:05;14.00;;;8.90;;
68214;SDS011;55036;52.138;5.236;2022-07-09T02:13:32;13.27;;;8.23;;
68214;SDS011;55036;52.138;5.236;2022-07-09T02:16:00;12.45;;;8.27;;
68214;SDS011;55036;52.138;5.236;2022-07-09T02:18:28;10.35;;;7.75;;
68214;SDS011;55036;52.138;5.236;2022-07-09T02:20:55;9.70;;;7.43;;
68214;SDS011;55036;52.138;5.236;2022-07-09T02:23:23;11.18;;;7.72;;
68214;SDS011;55036;52.138;5.236;2022-07-09T02:25:50;13.55;;;8.95;;
68214;SDS011;55036;52.138;5.236;2022-07-09T02:28:16;11.65;;;8.07;;
68214;SDS011;55036;52.138;5.236;2022-07-09T02:30:43;12.45;;;8.10;;
68214;SDS011;55036;52.138;5.236;2022-07-09T02:33:10;11.23;;;8.55;;
68214;SDS011;55036;52.138;5.236;2022-07-09T02:35:37;9.60;;;7.30;;
68214;SDS011;55036;52.138;5.236;2022-07-09T02:38:03;12.30;;;8.25;;
68214;SDS011;55036;52.138;5.236;2022-07-09T02:40:30;12.45;;;8.95;;
68214;SDS011;55036;52.138;5.236;2022-07-09T02:42:57;10.60;;;8.85;;
68214;SDS011;55036;52.138;5.236;2022-07-09T02:45:24;15.63;;;11.10;;
68214;SDS011;55036;52.138;5.236;2022-07-09T02:47:50;13.20;;;9.68;;
68214;SDS011;55036;52.138;5.236;2022-07-09T02:50:17;15.88;;;9.77;;
68214;SDS011;55036;52.138;5.236;2022-07-09T02:52:44;17.30;;;12.20;;
68214;SDS011;55036;52.138;5.236;2022-07-09T02:55:10;17.17;;;11.93;;
68214;SDS011;55036;52.138;5.236;2022-07-09T02:57:37;20.00;;;13.45;;
68214;SDS011;55036;52.138;5.236;2022-07-09T03:00:04;21.83;;;15.13;;
68214;SDS011;55036;52.138;5.236;2022-07-09T03:02:32;25.48;;;17.42;;
68214;SDS011;55036;52.138;5.236;2022-07-09T03:04:59;22.20;;;15.95;;
68214;SDS011;55036;52.138;5.236;2022-07-09T03:07:27;26.38;;;17.55;;
68214;SDS011;55036;52.138;5.236;2022-07-09T03:09:53;26.75;;;18.25;;
68214;SDS011;55036;52.138;5.236;2022-07-09T03:12:20;22.77;;;16.80;;
68214;SDS011;55036;52.138;5.236;2022-07-09T03:14:47;21.40;;;15.85;;
68214;SDS011;55036;52.138;5.236;2022-07-09T03:17:14;23.15;;;17.90;;
68214;SDS011;55036;52.138;5.236;2022-07-09T03:19:40;22.50;;;17.02;;
68214;SDS011;55036;52.138;5.236;2022-07-09T03:22:07;20.38;;;14.48;;
68214;SDS011;55036;52.138;5.236;2022-07-09T03:24:34;19.80;;;14.43;;
68214;SDS011;55036;52.138;5.236;2022-07-09T03:27:01;21.23;;;14.65;;
68214;SDS011;55036;52.138;5.236;2022-07-09T03:29:28;23.33;;;15.18;;
68214;SDS011;55036;52.138;5.236;2022-07-09T03:31:55;20.80;;;14.48;;
68214;SDS011;55036;52.138;5.236;2022-07-09T03:34:21;19.80;;;15.13;;
68214;SDS011;55036;52.138;5.236;2022-07-09T03:36:48;20.70;;;14.55;;
68214;SDS011;55036;52.138;5.236;2022-07-09T03:39:15;20.75;;;14.07;;
68214;SDS011;55036;52.138;5.236;2022-07-09T03:41:42;21.80;;;16.17;;
68214;SDS011;55036;52.138;5.236;2022-07-09T03:44:09;20.27;;;15.75;;
68214;SDS011;55036;52.138;5.236;2022-07-09T03:46:36;21.15;;;15.80;;
68214;SDS011;55036;52.138;5.236;2022-07-09T03:49:02;25.42;;;15.68;;
68214;SDS011;55036;52.138;5.236;2022-07-09T03:51:29;18.60;;;15.02;;
68214;SDS011;55036;52.138;5.236;2022-07-09T03:53:56;22.70;;;15.65;;
68214;SDS011;55036;52.138;5.236;2022-07-09T03:56:23;23.25;;;15.13;;
68214;SDS011;55036;52.138;5.236;2022-07-09T03:58:51;22.05;;;15.95;;
68214;SDS011;55036;52.138;5.236;2022-07-09T04:01:18;22.05;;;15.98;;
68214;SDS011;55036;52.138;5.236;2022-07-09T04:03:44;25.20;;;16.05;;
68214;SDS011;55036;52.138;5.236;2022-07-09T04:06:11;22.50;;;14.90;;
68214;SDS011;55036;52.138;5.236;2022-07-09T04:08:38;23.30;;;17.10;;
68214;SDS011;55036;52.138;5.236;2022-07-09T04:11:05;27.60;;;18.58;;
68214;SDS011;55036;52.138;5.236;2022-07-09T04:13:34;31.83;;;18.98;;
68214;SDS011;55036;52.138;5.236;2022-07-09T04:16:01;38.05;;;21.58;;
68214;SDS011;55036;52.138;5.236;2022-07-09T04:18:28;36.47;;;22.17;;
68214;SDS011;55036;52.138;5.236;2022-07-09T04:20:55;32.85;;;21.65;;
68214;SDS011;55036;52.138;5.236;2022-07-09T04:23:23;40.45;;;23.70;;
68214;SDS011;55036;52.138;5.236;2022-07-09T04:25:50;33.42;;;21.85;;
68214;SDS011;55036;52.138;5.236;2022-07-09T04:28:17;35.95;;;23.92;;
68214;SDS011;55036;52.138;5.236;2022-07-09T04:30:45;43.92;;;27.25;;
68214;SDS011;55036;52.138;5.236;2022-07-09T04:33:12;43.00;;;26.58;;
68214;SDS011;55036;52.138;5.236;2022-07-09T04:35:39;46.35;;;28.17;;
68214;SDS011;55036;52.138;5.236;2022-07-09T04:38:06;45.35;;;25.92;;
68214;SDS011;55036;52.138;5.236;2022-07-09T04:40:33;50.30;;;27.55;;
68214;SDS011;55036;52.138;5.236;2022-07-09T04:43:00;40.47;;;25.98;;
68214;SDS011;55036;52.138;5.236;2022-07-09T04:45:27;46.83;;;28.20;;
68214;SDS011;55036;52.138;5.236;2022-07-09T04:47:56;46.45;;;26.27;;
68214;SDS011;55036;52.138;5.236;2022-07-09T04:50:26;45.10;;;27.07;;
68214;SDS011;55036;52.138;5.236;2022-07-09T04:52:53;44.72;;;26.58;;
68214;SDS011;55036;52.138;5.236;2022-07-09T04:55:20;46.28;;;26.60;;
68214;SDS011;55036;52.138;5.236;2022-07-09T04:57:48;46.10;;;26.23;;
68214;SDS011;55036;52.138;5.236;2022-07-09T05:00:16;47.10;;;27.17;;
68214;SDS011;55036;52.138;5.236;2022-07-09T05:02:43;42.53;;;26.38;;
68214;SDS011;55036;52.138;5.236;2022-07-09T05:05:11;47.63;;;26.50;;
68214;SDS011;55036;52.138;5.236;2022-07-09T05:07:38;44.60;;;26.60;;
68214;SDS011;55036;52.138;5.236;2022-07-09T05:10:04;41.10;;;24.65;;
68214;SDS011;55036;52.138;5.236;2022-07-09T05:12:32;38.35;;;25.75;;
68214;SDS011;55036;52.138;5.236;2022-07-09T05:14:58;37.53;;;23.67;;
68214;SDS011;55036;52.138;5.236;2022-07-09T05:17:25;39.50;;;26.10;;
68214;SDS011;55036;52.138;5.236;2022-07-09T05:19:52;32.05;;;23.13;;
68214;SDS011;55036;52.138;5.236;2022-07-09T05:22:19;39.22;;;23.52;;
68214;SDS011;55036;52.138;5.236;2022-07-09T05:24:46;33.00;;;22.83;;
68214;SDS011;55036;52.138;5.236;2022-07-09T05:27:12;35.15;;;21.70;;
68214;SDS011;55036;52.138;5.236;2022-07-09T05:29:39;28.85;;;20.65;;
68214;SDS011;55036;52.138;5.236;2022-07-09T05:32:06;32.60;;;20.67;;
68214;SDS011;55036;52.138;5.236;2022-07-09T05:34:33;28.90;;;20.48;;
68214;SDS011;55036;52.138;5.236;2022-07-09T05:37:00;27.92;;;21.02;;
68214;SDS011;55036;52.138;5.236;2022-07-09T05:39:26;30.77;;;19.90;;
68214;SDS011;55036;52.138;5.236;2022-07-09T05:41:53;34.00;;;20.80;;
68214;SDS011;55036;52.138;5.236;2022-07-09T05:44:20;28.27;;;20.70;;
68214;SDS011;55036;52.138;5.236;2022-07-09T05:46:50;26.38;;;19.08;;
68214;SDS011;55036;52.138;5.236;2022-07-09T05:49:17;24.88;;;18.40;;
68214;SDS011;55036;52.138;5.236;2022-07-09T05:51:44;25.60;;;17.35;;
68214;SDS011;55036;52.138;5.236;2022-07-09T05:54:11;24.55;;;17.85;;
68214;SDS011;55036;52.138;5.236;2022-07-09T05:56:38;23.40;;;17.13;;
68214;SDS011;55036;52.138;5.236;2022-07-09T05:59:05;25.27;;;15.80;;
68214;SDS011;55036;52.138;5.236;2022-07-09T06:01:32;24.27;;;15.63;;
68214;SDS011;55036;52.138;5.236;2022-07-09T06:03:59;23.33;;;17.02;;
68214;SDS011;55036;52.138;5.236;2022-07-09T06:06:26;21.17;;;15.15;;
68214;SDS011;55036;52.138;5.236;2022-07-09T06:08:52;22.38;;;14.95;;
68214;SDS011;55036;52.138;5.236;2022-07-09T06:11:19;18.83;;;13.50;;
68214;SDS011;55036;52.138;5.236;2022-07-09T06:13:46;14.60;;;12.55;;
68214;SDS011;55036;52.138;5.236;2022-07-09T06:16:13;18.77;;;12.82;;
68214;SDS011;55036;52.138;5.236;2022-07-09T06:18:40;19.45;;;11.95;;
68214;SDS011;55036;52.138;5.236;2022-07-09T06:21:07;14.63;;;10.20;;
68214;SDS011;55036;52.138;5.236;2022-07-09T06:23:34;12.88;;;9.55;;
68214;SDS011;55036;52.138;5.236;2022-07-09T06:26:00;12.77;;;9.57;;
68214;SDS011;55036;52.138;5.236;2022-07-09T06:28:27;15.98;;;9.13;;
68214;SDS011;55036;52.138;5.236;2022-07-09T06:30:54;15.73;;;9.23;;
68214;SDS011;55036;52.138;5.236;2022-07-09T06:33:20;12.00;;;8.93;;
68214;SDS011;55036;52.138;5.236;2022-07-09T06:35:47;11.43;;;7.40;;
68214;SDS011;55036;52.138;5.236;2022-07-09T06:38:14;10.75;;;7.88;;
68214;SDS011;55036;52.138;5.236;2022-07-09T06:40:41;14.30;;;9.35;;
68214;SDS011;55036;52.138;5.236;2022-07-09T06:43:07;13.50;;;9.88;;
68214;SDS011;55036;52.138;5.236;2022-07-09T06:45:38;14.30;;;9.50;;
68214;SDS011;55036;52.138;5.236;2022-07-09T06:48:05;11.27;;;8.95;;
68214;SDS011;55036;52.138;5.236;2022-07-09T06:50:32;11.90;;;9.15;;
68214;SDS011;55036;52.138;5.236;2022-07-09T06:52:59;12.38;;;9.93;;
68214;SDS011;55036;52.138;5.236;2022-07-09T06:55:25;15.32;;;9.15;;
68214;SDS011;55036;52.138;5.236;2022-07-09T06:57:52;12.82;;;8.52;;
68214;SDS011;55036;52.138;5.236;2022-07-09T07:00:19;13.07;;;8.95;;
68214;SDS011;55036;52.138;5.236;2022-07-09T07:02:45;11.32;;;7.85;;
68214;SDS011;55036;52.138;5.236;2022-07-09T07:05:12;12.13;;;7.55;;
68214;SDS011;55036;52.138;5.236;2022-07-09T07:07:43;10.65;;;8.18;;
68214;SDS011;55036;52.138;5.236;2022-07-09T07:10:10;12.55;;;9.18;;
68214;SDS011;55036;52.138;5.236;2022-07-09T07:12:37;12.90;;;8.80;;
68214;SDS011;55036;52.138;5.236;2022-07-09T07:15:04;10.93;;;7.93;;
68214;SDS011;55036;52.138;5.236;2022-07-09T07:17:31;16.83;;;10.45;;
68214;SDS011;55036;52.138;5.236;2022-07-09T07:19:58;13.32;;;10.40;;
68214;SDS011;55036;52.138;5.236;2022-07-09T07:22:25;12.95;;;11.38;;
68214;SDS011;55036;52.138;5.236;2022-07-09T07:24:52;14.35;;;11.65;;
68214;SDS011;55036;52.138;5.236;2022-07-09T07:27:19;17.02;;;11.65;;
68214;SDS011;55036;52.138;5.236;2022-07-09T07:29:45;14.57;;;11.88;;
68214;SDS011;55036;52.138;5.236;2022-07-09T07:32:12;13.40;;;10.88;;
68214;SDS011;55036;52.138;5.236;2022-07-09T07:34:39;15.85;;;12.32;;
68214;SDS011;55036;52.138;5.236;2022-07-09T07:37:06;14.55;;;10.52;;
68214;SDS011;55036;52.138;5.236;2022-07-09T07:39:32;15.48;;;10.77;;
68214;SDS011;55036;52.138;5.236;2022-07-09T07:41:59;11.55;;;9.82;;
68214;SDS011;55036;52.138;5.236;2022-07-09T07:44:26;13.98;;;10.50;;
68214;SDS011;55036;52.138;5.236;2022-07-09T07:46:54;15.30;;;9.57;;
68214;SDS011;55036;52.138;5.236;2022-07-09T07:49:21;11.48;;;9.60;;
68214;SDS011;55036;52.138;5.236;2022-07-09T07:51:47;15.65;;;11.00;;
68214;SDS011;55036;52.138;5.236;2022-07-09T07:54:14;13.45;;;10.93;;
68214;SDS011;55036;52.138;5.236;2022-07-09T07:56:41;13.60;;;12.20;;
68214;SDS011;55036;52.138;5.236;2022-07-09T07:59:08;13.55;;;11.20;;
68214;SDS011;55036;52.138;5.236;2022-07-09T08:01:35;16.08;;;10.95;;
68214;SDS011;55036;52.138;5.236;2022-07-09T08:04:02;15.23;;;9.68;;
68214;SDS011;55036;52.138;5.236;2022-07-09T08:06:29;12.20;;;8.70;;
68214;SDS011;55036;52.138;5.236;2022-07-09T08:08:56;14.00;;;10.05;;
68214;SDS011;55036;52.138;5.236;2022-07-09T08:11:23;13.52;;;10.10;;
68214;SDS011;55036;52.138;5.236;2022-07-09T08:13:49;12.35;;;7.13;;
68214;SDS011;55036;52.138;5.236;2022-07-09T08:16:16;8.13;;;6.18;;
68214;SDS011;55036;52.138;5.236;2022-07-09T08:18:43;7.05;;;4.20;;
68214;SDS011;55036;52.138;5.236;2022-07-09T08:21:10;5.28;;;2.92;;
68214;SDS011;55036;52.138;5.236;2022-07-09T08:23:37;6.13;;;1.95;;
68214;SDS011;55036;52.138;5.236;2022-07-09T08:26:21;4.68;;;1.83;;
68214;SDS011;55036;52.138;5.236;2022-07-09T08:28:51;1.60;;;1.50;;
68214;SDS011;55036;52.138;5.236;2022-07-09T08:31:19;1.67;;;1.25;;
68214;SDS011;55036;52.138;5.236;2022-07-09T08:33:48;2.03;;;1.35;;
68214;SDS011;55036;52.138;5.236;2022-07-09T08:36:15;2.03;;;1.50;;
68214;SDS011;55036;52.138;5.236;2022-07-09T08:38:42;5.30;;;2.25;;
68214;SDS011;55036;52.138;5.236;2022-07-09T08:41:10;3.72;;;1.67;;
68214;SDS011;55036;52.138;5.236;2022-07-09T08:43:37;4.05;;;1.52;;
68214;SDS011;55036;52.138;5.236;2022-07-09T08:46:05;5.00;;;2.00;;
68214;SDS011;55036;52.138;5.236;2022-07-09T08:48:33;3.67;;;2.47;;
68214;SDS011;55036;52.138;5.236;2022-07-09T08:51:02;4.53;;;2.20;;
68214;SDS011;55036;52.138;5.236;2022-07-09T08:53:29;5.30;;;1.80;;
68214;SDS011;55036;52.138;5.236;2022-07-09T08:55:57;6.25;;;2.05;;
68214;SDS011;55036;52.138;5.236;2022-07-09T08:58:24;2.30;;;2.05;;
68214;SDS011;55036;52.138;5.236;2022-07-09T09:00:50;3.58;;;2.30;;
68214;SDS011;55036;52.138;5.236;2022-07-09T09:03:18;5.03;;;2.10;;
68214;SDS011;55036;52.138;5.236;2022-07-09T09:05:45;3.00;;;2.05;;
68214;SDS011;55036;52.138;5.236;2022-07-09T09:08:26;4.03;;;2.63;;
68214;SDS011;55036;52.138;5.236;2022-07-09T09:10:53;6.40;;;2.13;;
68214;SDS011;55036;52.138;5.236;2022-07-09T09:13:20;5.03;;;2.75;;
68214;SDS011;55036;52.138;5.236;2022-07-09T09:15:47;5.22;;;2.50;;
68214;SDS011;55036;52.138;5.236;2022-07-09T09:18:14;2.60;;;1.88;;
68214;SDS011;55036;52.138;5.236;2022-07-09T09:20:44;3.53;;;2.00;;
68214;SDS011;55036;52.138;5.236;2022-07-09T09:23:15;2.70;;;1.92;;
68214;SDS011;55036;52.138;5.236;2022-07-09T09:25:42;4.97;;;2.05;;
68214;SDS011;55036;52.138;5.236;2022-07-09T09:28:09;3.50;;;1.30;;
68214;SDS011;55036;52.138;5.236;2022-07-09T09:30:42;1.90;;;1.20;;
68214;SDS011;55036;52.138;5.236;2022-07-09T09:33:13;2.83;;;1.20;;
68214;SDS011;55036;52.138;5.236;2022-07-09T09:35:42;1.77;;;1.60;;
68214;SDS011;55036;52.138;5.236;2022-07-09T09:38:10;5.93;;;1.45;;
68214;SDS011;55036;52.138;5.236;2022-07-09T09:40:37;2.05;;;1.27;;
68214;SDS011;55036;52.138;5.236;2022-07-09T09:43:06;2.47;;;1.20;;
68214;SDS011;55036;52.138;5.236;2022-07-09T09:45:34;6.35;;;1.27;;
68214;SDS011;55036;52.138;5.236;2022-07-09T09:48:01;4.30;;;1.60;;
68214;SDS011;55036;52.138;5.236;2022-07-09T09:50:32;5.17;;;1.30;;
68214;SDS011;55036;52.138;5.236;2022-07-09T09:53:05;3.60;;;1.25;;
68214;SDS011;55036;52.138;5.236;2022-07-09T09:55:34;2.38;;;1.20;;
68214;SDS011;55036;52.138;5.236;2022-07-09T09:58:03;4.55;;;1.40;;
68214;SDS011;55036;52.138;5.236;2022-07-09T10:00:32;3.70;;;1.27;;
68214;SDS011;55036;52.138;5.236;2022-07-09T10:02:59;2.47;;;1.10;;
68214;SDS011;55036;52.138;5.236;2022-07-09T10:05:28;4.32;;;1.33;;
68214;SDS011;55036;52.138;5.236;2022-07-09T10:07:55;1.80;;;1.02;;
68214;SDS011;55036;52.138;5.236;2022-07-09T10:10:21;1.75;;;1.35;;
68214;SDS011;55036;52.138;5.236;2022-07-09T10:12:50;2.05;;;1.20;;
68214;SDS011;55036;52.138;5.236;2022-07-09T10:17:47;2.60;;;1.20;;
68214;SDS011;55036;52.138;5.236;2022-07-09T10:20:15;1.50;;;0.85;;
68214;SDS011;55036;52.138;5.236;2022-07-09T10:22:43;3.38;;;1.20;;
68214;SDS011;55036;52.138;5.236;2022-07-09T10:25:12;3.75;;;1.10;;
68214;SDS011;55036;52.138;5.236;2022-07-09T10:27:48;4.90;;;1.73;;
68214;SDS011;55036;52.138;5.236;2022-07-09T10:30:22;2.65;;;1.30;;
68214;SDS011;55036;52.138;5.236;2022-07-09T10:33:00;4.88;;;1.05;;
68214;SDS011;55036;52.138;5.236;2022-07-09T10:35:27;3.67;;;1.13;;
68214;SDS011;55036;52.138;5.236;2022-07-09T10:37:55;3.17;;;1.10;;
68214;SDS011;55036;52.138;5.236;2022-07-09T10:40:22;3.33;;;1.38;;
68214;SDS011;55036;52.138;5.236;2022-07-09T10:42:58;3.13;;;1.02;;
68214;SDS011;55036;52.138;5.236;2022-07-09T10:45:28;2.65;;;1.13;;
68214;SDS011;55036;52.138;5.236;2022-07-09T10:48:02;1.27;;;1.02;;
68214;SDS011;55036;52.138;5.236;2022-07-09T10:50:31;1.52;;;1.08;;
68214;SDS011;55036;52.138;5.236;2022-07-09T10:53:01;2.73;;;1.17;;
68214;SDS011;55036;52.138;5.236;2022-07-09T10:55:31;2.17;;;1.05;;
68214;SDS011;55036;52.138;5.236;2022-07-09T10:57:59;4.32;;;1.42;;
68214;SDS011;55036;52.138;5.236;2022-07-09T11:00:28;3.15;;;1.40;;
68214;SDS011;55036;52.138;5.236;2022-07-09T11:03:05;3.28;;;1.00;;
68214;SDS011;55036;52.138;5.236;2022-07-09T11:05:33;3.90;;;1.30;;
68214;SDS011;55036;52.138;5.236;2022-07-09T11:08:11;3.30;;;1.20;;
68214;SDS011;55036;52.138;5.236;2022-07-09T11:10:39;1.65;;;0.93;;
68214;SDS011;55036;52.138;5.236;2022-07-09T11:13:10;3.70;;;1.30;;
68214;SDS011;55036;52.138;5.236;2022-07-09T11:15:38;5.82;;;1.38;;
68214;SDS011;55036;52.138;5.236;2022-07-09T11:18:06;4.38;;;1.30;;
68214;SDS011;55036;52.138;5.236;2022-07-09T11:20:38;3.38;;;0.93;;
68214;SDS011;55036;52.138;5.236;2022-07-09T11:23:12;3.08;;;0.88;;
68214;SDS011;55036;52.138;5.236;2022-07-09T11:25:41;3.15;;;1.00;;
68214;SDS011;55036;52.138;5.236;2022-07-09T11:28:17;3.92;;;1.10;;
68214;SDS011;55036;52.138;5.236;2022-07-09T11:30:46;2.72;;;1.17;;
68214;SDS011;55036;52.138;5.236;2022-07-09T11:33:28;3.58;;;1.00;;
68214;SDS011;55036;52.138;5.236;2022-07-09T11:36:15;2.60;;;1.08;;
68214;SDS011;55036;52.138;5.236;2022-07-09T11:38:46;4.72;;;1.83;;
68214;SDS011;55036;52.138;5.236;2022-07-09T11:41:19;4.53;;;1.25;;
68214;SDS011;55036;52.138;5.236;2022-07-09T11:43:50;3.78;;;1.00;;
68214;SDS011;55036;52.138;5.236;2022-07-09T11:46:19;3.58;;;1.00;;
68214;SDS011;55036;52.138;5.236;2022-07-09T11:48:51;3.90;;;1.20;;
68214;SDS011;55036;52.138;5.236;2022-07-09T11:51:32;3.45;;;0.85;;
68214;SDS011;55036;52.138;5.236;2022-07-09T11:54:01;5.18;;;1.17;;
68214;SDS011;55036;52.138;5.236;2022-07-09T11:56:50;3.45;;;0.90;;
68214;SDS011;55036;52.138;5.236;2022-07-09T11:59:24;1.98;;;1.00;;
68214;SDS011;55036;52.138;5.236;2022-07-09T12:01:58;5.13;;;1.10;;
68214;SDS011;55036;52.138;5.236;2022-07-09T12:04:29;4.00;;;1.30;;
68214;SDS011;55036;52.138;5.236;2022-07-09T12:06:59;4.80;;;1.20;;
68214;SDS011;55036;52.138;5.236;2022-07-09T12:09:27;6.68;;;1.40;;
68214;SDS011;55036;52.138;5.236;2022-07-09T12:11:56;5.13;;;1.25;;
68214;SDS011;55036;52.138;5.236;2022-07-09T12:14:24;4.03;;;0.90;;
68214;SDS011;55036;52.138;5.236;2022-07-09T12:16:51;2.75;;;1.00;;
68214;SDS011;55036;52.138;5.236;2022-07-09T12:19:18;2.42;;;1.10;;
68214;SDS011;55036;52.138;5.236;2022-07-09T12:21:45;6.28;;;1.70;;
68214;SDS011;55036;52.138;5.236;2022-07-09T12:24:12;3.65;;;1.20;;
68214;SDS011;55036;52.138;5.236;2022-07-09T12:26:39;4.40;;;1.42;;
68214;SDS011;55036;52.138;5.236;2022-07-09T12:29:26;3.95;;;1.20;;
68214;SDS011;55036;52.138;5.236;2022-07-09T12:31:53;5.90;;;1.55;;
68214;SDS011;55036;52.138;5.236;2022-07-09T12:34:20;5.32;;;1.52;;
68214;SDS011;55036;52.138;5.236;2022-07-09T12:36:47;3.88;;;1.30;;
68214;SDS011;55036;52.138;5.236;2022-07-09T12:39:24;3.88;;;1.35;;
68214;SDS011;55036;52.138;5.236;2022-07-09T12:41:51;4.97;;;1.20;;
68214;SDS011;55036;52.138;5.236;2022-07-09T12:44:18;6.65;;;1.27;;
68214;SDS011;55036;52.138;5.236;2022-07-09T12:46:45;3.45;;;0.95;;
68214;SDS011;55036;52.138;5.236;2022-07-09T12:49:12;2.10;;;0.85;;
68214;SDS011;55036;52.138;5.236;2022-07-09T12:51:39;4.00;;;1.35;;
68214;SDS011;55036;52.138;5.236;2022-07-09T12:54:06;3.03;;;1.35;;
68214;SDS011;55036;52.138;5.236;2022-07-09T12:56:32;2.72;;;0.98;;
68214;SDS011;55036;52.138;5.236;2022-07-09T12:59:19;4.57;;;0.98;;
68214;SDS011;55036;52.138;5.236;2022-07-09T13:01:46;3.55;;;1.00;;
68214;SDS011;55036;52.138;5.236;2022-07-09T13:04:13;5.30;;;1.13;;
68214;SDS011;55036;52.138;5.236;2022-07-09T13:06:41;3.28;;;0.70;;
68214;SDS011;55036;52.138;5.236;2022-07-09T13:09:08;4.85;;;1.23;;
68214;SDS011;55036;52.138;5.236;2022-07-09T13:11:36;4.60;;;1.90;;
68214;SDS011;55036;52.138;5.236;2022-07-09T13:14:04;4.00;;;1.00;;
68214;SDS011;55036;52.138;5.236;2022-07-09T13:16:31;3.55;;;0.90;;
68214;SDS011;55036;52.138;5.236;2022-07-09T13:18:58;3.13;;;1.15;;
68214;SDS011;55036;52.138;5.236;2022-07-09T13:21:24;4.93;;;1.25;;
68214;SDS011;55036;52.138;5.236;2022-07-09T13:23:51;4.10;;;1.08;;
68214;SDS011;55036;52.138;5.236;2022-07-09T13:26:19;2.42;;;1.10;;
68214;SDS011;55036;52.138;5.236;2022-07-09T13:28:46;4.45;;;1.20;;
68214;SDS011;55036;52.138;5.236;2022-07-09T13:31:12;4.90;;;1.27;;
68214;SDS011;55036;52.138;5.236;2022-07-09T13:33:40;2.88;;;1.27;;
68214;SDS011;55036;52.138;5.236;2022-07-09T13:36:07;4.22;;;1.20;;
68214;SDS011;55036;52.138;5.236;2022-07-09T13:38:34;5.25;;;1.40;;
68214;SDS011;55036;52.138;5.236;2022-07-09T13:41:04;4.30;;;1.35;;
68214;SDS011;55036;52.138;5.236;2022-07-09T13:43:30;6.50;;;1.55;;
68214;SDS011;55036;52.138;5.236;2022-07-09T13:46:02;3.55;;;1.23;;
68214;SDS011;55036;52.138;5.236;2022-07-09T13:48:30;6.78;;;1.77;;
68214;SDS011;55036;52.138;5.236;2022-07-09T13:50:57;5.60;;;1.55;;
68214;SDS011;55036;52.138;5.236;2022-07-09T13:53:25;6.30;;;1.60;;
68214;SDS011;55036;52.138;5.236;2022-07-09T13:55:54;6.05;;;1.50;;
68214;SDS011;55036;52.138;5.236;2022-07-09T13:58:21;5.10;;;1.50;;
68214;SDS011;55036;52.138;5.236;2022-07-09T14:00:48;5.25;;;1.30;;
68214;SDS011;55036;52.138;5.236;2022-07-09T14:03:15;4.97;;;1.45;;
68214;SDS011;55036;52.138;5.236;2022-07-09T14:05:42;5.93;;;1.92;;
68214;SDS011;55036;52.138;5.236;2022-07-09T14:08:09;5.63;;;1.58;;
68214;SDS011;55036;52.138;5.236;2022-07-09T14:10:39;6.18;;;1.60;;
68214;SDS011;55036;52.138;5.236;2022-07-09T14:13:06;4.68;;;1.45;;
68214;SDS011;55036;52.138;5.236;2022-07-09T14:15:33;6.53;;;1.70;;
68214;SDS011;55036;52.138;5.236;2022-07-09T14:18:00;6.25;;;1.60;;
68214;SDS011;55036;52.138;5.236;2022-07-09T14:20:27;4.97;;;1.20;;
68214;SDS011;55036;52.138;5.236;2022-07-09T14:22:54;4.50;;;1.30;;
68214;SDS011;55036;52.138;5.236;2022-07-09T14:25:20;6.13;;;1.13;;
68214;SDS011;55036;52.138;5.236;2022-07-09T14:27:48;8.80;;;1.35;;
68214;SDS011;55036;52.138;5.236;2022-07-09T14:30:14;3.72;;;1.17;;
68214;SDS011;55036;52.138;5.236;2022-07-09T14:32:41;4.60;;;1.23;;
68214;SDS011;55036;52.138;5.236;2022-07-09T14:35:08;4.57;;;1.35;;
68214;SDS011;55036;52.138;5.236;2022-07-09T14:37:35;5.75;;;1.20;;
68214;SDS011;55036;52.138;5.236;2022-07-09T14:40:03;3.05;;;1.30;;
68214;SDS011;55036;52.138;5.236;2022-07-09T14:42:30;2.97;;;1.10;;